sensor_id;sensor_type;location;lat;lon;timestamp;temperature;humidity
14016;DHT22;7083;48.854;9.158;2023-02-11T00:00:39;-4.10;99.90
14016;DHT22;7083;48.854;9.158;2023-02-11T00:03:06;-4.10;99.90
14016;DHT22;7083;48.854;9.158;2023-02-11T00:05:33;-4.10;99.90
14016;DHT22;7083;48.854;9.158;2023-02-11T00:07:59;-4.10;99.90
14016;DHT22;7083;48.854;9.158;2023-02-11T00:10:26;-4.10;99.90
14016;DHT22;7083;48.854;9.158;2023-02-11T00:12:54;-4.10;99.90
14016;DHT22;7083;48.854;9.158;2023-02-11T00:15:21;-4.10;99.90
14016;DHT22;7083;48.854;9.158;2023-02-11T00:17:48;-4.20;99.90
14016;DHT22;7083;48.854;9.158;2023-02-11T00:20:15;-4.10;99.90
14016;DHT22;7083;48.854;9.158;2023-02-11T00:22:41;-3.00;99.90
14016;DHT22;7083;48.854;9.158;2023-02-11T00:25:08;-4.20;99.90
14016;DHT22;7083;48.854;9.158;2023-02-11T00:27:35;-4.20;99.90
14016;DHT22;7083;48.854;9.158;2023-02-11T00:30:04;-4.20;99.90
14016;DHT22;7083;48.854;9.158;2023-02-11T00:32:31;-4.20;99.90
14016;DHT22;7083;48.854;9.158;2023-02-11T00:34:58;-4.30;99.90
14016;DHT22;7083;48.854;9.158;2023-02-11T00:37:25;-4.20;99.90
14016;DHT22;7083;48.854;9.158;2023-02-11T00:39:52;-4.20;99.90
14016;DHT22;7083;48.854;9.158;2023-02-11T00:42:18;-3.90;99.90
14016;DHT22;7083;48.854;9.158;2023-02-11T00:44:45;-4.20;99.90
14016;DHT22;7083;48.854;9.158;2023-02-11T00:47:13;-4.10;99.90
14016;DHT22;7083;48.854;9.158;2023-02-11T00:49:40;-4.30;99.90
14016;DHT22;7083;48.854;9.158;2023-02-11T00:52:06;-4.20;99.90
14016;DHT22;7083;48.854;9.158;2023-02-11T00:54:33;-4.30;99.90
14016;DHT22;7083;48.854;9.158;2023-02-11T00:57:00;-4.20;99.90
14016;DHT22;7083;48.854;9.158;2023-02-11T00:59:27;-4.10;99.90
14016;DHT22;7083;48.854;9.158;2023-02-11T01:01:53;-4.30;99.90
14016;DHT22;7083;48.854;9.158;2023-02-11T01:04:22;-4.10;99.90
14016;DHT22;7083;48.854;9.158;2023-02-11T01:06:49;-4.30;99.90
14016;DHT22;7083;48.854;9.158;2023-02-11T01:09:16;-4.30;99.90
14016;DHT22;7083;48.854;9.158;2023-02-11T01:11:44;-4.20;99.90
14016;DHT22;7083;48.854;9.158;2023-02-11T01:14:10;-4.30;99.90
14016;DHT22;7083;48.854;9.158;2023-02-11T01:16:37;-4.20;99.90
14016;DHT22;7083;48.854;9.158;2023-02-11T01:19:04;-4.30;99.90
14016;DHT22;7083;48.854;9.158;2023-02-11T01:21:32;-4.30;99.90
14016;DHT22;7083;48.854;9.158;2023-02-11T01:23:59;-4.30;99.90
14016;DHT22;7083;48.854;9.158;2023-02-11T01:26:26;-4.30;99.90
14016;DHT22;7083;48.854;9.158;2023-02-11T01:28:52;-4.30;99.90
14016;DHT22;7083;48.854;9.158;2023-02-11T01:31:19;-4.30;99.90
14016;DHT22;7083;48.854;9.158;2023-02-11T01:33:46;-4.40;99.90
14016;DHT22;7083;48.854;9.158;2023-02-11T01:36:13;-4.40;99.90
14016;DHT22;7083;48.854;9.158;2023-02-11T01:38:41;-4.40;99.90
14016;DHT22;7083;48.854;9.158;2023-02-11T01:41:11;-4.30;99.90
14016;DHT22;7083;48.854;9.158;2023-02-11T01:43:42;-4.30;99.90
14016;DHT22;7083;48.854;9.158;2023-02-11T01:46:27;-4.40;99.90
14016;DHT22;7083;48.854;9.158;2023-02-11T01:48:56;-4.40;99.90
14016;DHT22;7083;48.854;9.158;2023-02-11T01:51:25;-4.40;99.90
14016;DHT22;7083;48.854;9.158;2023-02-11T01:53:54;-4.40;99.90
14016;DHT22;7083;48.854;9.158;2023-02-11T01:56:43;-4.40;99.90
14016;DHT22;7083;48.854;9.158;2023-02-11T01:59:32;-4.40;99.90
14016;DHT22;7083;48.854;9.158;2023-02-11T02:02:04;-4.30;99.90
14016;DHT22;7083;48.854;9.158;2023-02-11T02:04:40;-4.40;99.90
14016;DHT22;7083;48.854;9.158;2023-02-11T02:07:10;-4.40;99.90
14016;DHT22;7083;48.854;9.158;2023-02-11T02:09:41;-4.40;99.90
14016;DHT22;7083;48.854;9.158;2023-02-11T02:12:09;-4.30;99.90
14016;DHT22;7083;48.854;9.158;2023-02-11T02:14:37;-4.40;99.90
14016;DHT22;7083;48.854;9.158;2023-02-11T02:17:04;-4.30;99.90
14016;DHT22;7083;48.854;9.158;2023-02-11T02:19:52;-4.30;99.90
14016;DHT22;7083;48.854;9.158;2023-02-11T02:22:51;-4.30;99.90
14016;DHT22;7083;48.854;9.158;2023-02-11T02:25:47;-4.30;99.90
14016;DHT22;7083;48.854;9.158;2023-02-11T02:28:45;-4.20;99.90
14016;DHT22;7083;48.854;9.158;2023-02-11T02:31:29;-4.20;99.90
14016;DHT22;7083;48.854;9.158;2023-02-11T02:34:05;-4.20;99.90
14016;DHT22;7083;48.854;9.158;2023-02-11T02:36:39;-4.20;99.90
14016;DHT22;7083;48.854;9.158;2023-02-11T02:39:11;-4.10;99.90
14016;DHT22;7083;48.854;9.158;2023-02-11T02:41:41;-4.10;99.90
14016;DHT22;7083;48.854;9.158;2023-02-11T02:44:08;-4.10;99.90
14016;DHT22;7083;48.854;9.158;2023-02-11T02:46:35;-4.10;99.90
14016;DHT22;7083;48.854;9.158;2023-02-11T02:49:08;-4.10;99.90
14016;DHT22;7083;48.854;9.158;2023-02-11T02:51:46;-4.10;99.90
14016;DHT22;7083;48.854;9.158;2023-02-11T02:54:35;-4.10;99.90
14016;DHT22;7083;48.854;9.158;2023-02-11T02:57:14;-4.00;99.90
14016;DHT22;7083;48.854;9.158;2023-02-11T02:59:53;-4.10;99.90
14016;DHT22;7083;48.854;9.158;2023-02-11T03:02:27;-4.10;99.90
14016;DHT22;7083;48.854;9.158;2023-02-11T03:05:02;-4.00;99.90
14016;DHT22;7083;48.854;9.158;2023-02-11T03:07:37;-4.10;99.90
14016;DHT22;7083;48.854;9.158;2023-02-11T03:10:09;-3.70;99.90
14016;DHT22;7083;48.854;9.158;2023-02-11T03:12:38;-4.10;99.90
14016;DHT22;7083;48.854;9.158;2023-02-11T03:15:07;-4.10;99.90
14016;DHT22;7083;48.854;9.158;2023-02-11T03:17:35;-4.10;99.90
14016;DHT22;7083;48.854;9.158;2023-02-11T03:20:09;-4.10;99.90
14016;DHT22;7083;48.854;9.158;2023-02-11T03:22:41;-4.10;99.90
14016;DHT22;7083;48.854;9.158;2023-02-11T03:25:09;-4.10;99.90
14016;DHT22;7083;48.854;9.158;2023-02-11T03:27:40;-4.10;99.90
14016;DHT22;7083;48.854;9.158;2023-02-11T03:30:13;-4.20;99.90
14016;DHT22;7083;48.854;9.158;2023-02-11T03:32:48;-4.20;99.90
14016;DHT22;7083;48.854;9.158;2023-02-11T03:35:21;-4.20;99.90
14016;DHT22;7083;48.854;9.158;2023-02-11T03:37:51;-4.20;99.90
14016;DHT22;7083;48.854;9.158;2023-02-11T03:40:22;-4.20;99.90
14016;DHT22;7083;48.854;9.158;2023-02-11T03:42:53;-3.50;99.90
14016;DHT22;7083;48.854;9.158;2023-02-11T03:45:23;-4.10;99.90
14016;DHT22;7083;48.854;9.158;2023-02-11T03:47:54;-4.00;99.90
14016;DHT22;7083;48.854;9.158;2023-02-11T03:50:23;-3.90;99.90
14016;DHT22;7083;48.854;9.158;2023-02-11T03:52:51;-3.90;99.90
14016;DHT22;7083;48.854;9.158;2023-02-11T03:55:20;-3.70;99.90
14016;DHT22;7083;48.854;9.158;2023-02-11T03:57:50;-3.60;99.90
14016;DHT22;7083;48.854;9.158;2023-02-11T04:00:17;-3.50;99.90
14016;DHT22;7083;48.854;9.158;2023-02-11T04:02:44;-3.40;99.90
14016;DHT22;7083;48.854;9.158;2023-02-11T04:05:13;-3.20;99.90
14016;DHT22;7083;48.854;9.158;2023-02-11T04:07:41;-3.10;99.90
14016;DHT22;7083;48.854;9.158;2023-02-11T04:10:10;-3.00;99.90
14016;DHT22;7083;48.854;9.158;2023-02-11T04:12:37;-2.90;99.90
14016;DHT22;7083;48.854;9.158;2023-02-11T04:15:04;-2.80;99.90
14016;DHT22;7083;48.854;9.158;2023-02-11T04:17:31;-2.70;99.90
14016;DHT22;7083;48.854;9.158;2023-02-11T04:19:58;-2.70;99.90
14016;DHT22;7083;48.854;9.158;2023-02-11T04:22:25;-2.60;99.90
14016;DHT22;7083;48.854;9.158;2023-02-11T04:24:53;-2.60;99.90
14016;DHT22;7083;48.854;9.158;2023-02-11T04:27:19;-2.60;99.90
14016;DHT22;7083;48.854;9.158;2023-02-11T04:29:46;-2.60;99.90
14016;DHT22;7083;48.854;9.158;2023-02-11T04:32:13;-2.50;99.90
14016;DHT22;7083;48.854;9.158;2023-02-11T04:34:40;-2.40;99.90
14016;DHT22;7083;48.854;9.158;2023-02-11T04:37:07;-2.30;99.90
14016;DHT22;7083;48.854;9.158;2023-02-11T04:39:34;-2.30;99.90
14016;DHT22;7083;48.854;9.158;2023-02-11T04:42:02;-2.20;99.90
14016;DHT22;7083;48.854;9.158;2023-02-11T04:44:29;-2.20;99.90
14016;DHT22;7083;48.854;9.158;2023-02-11T04:46:56;-2.10;99.90
14016;DHT22;7083;48.854;9.158;2023-02-11T04:49:22;-2.10;99.90
14016;DHT22;7083;48.854;9.158;2023-02-11T04:51:49;-2.00;99.90
14016;DHT22;7083;48.854;9.158;2023-02-11T04:54:16;-1.90;99.90
14016;DHT22;7083;48.854;9.158;2023-02-11T04:56:44;-1.90;99.90
14016;DHT22;7083;48.854;9.158;2023-02-11T04:59:12;-1.80;99.90
14016;DHT22;7083;48.854;9.158;2023-02-11T05:01:39;-1.80;99.90
14016;DHT22;7083;48.854;9.158;2023-02-11T05:04:06;-1.80;99.90
14016;DHT22;7083;48.854;9.158;2023-02-11T05:06:32;-1.70;99.90
14016;DHT22;7083;48.854;9.158;2023-02-11T05:08:59;-1.70;99.90
14016;DHT22;7083;48.854;9.158;2023-02-11T05:11:26;-1.70;99.90
14016;DHT22;7083;48.854;9.158;2023-02-11T05:13:52;-1.60;99.90
14016;DHT22;7083;48.854;9.158;2023-02-11T05:16:20;-1.60;99.90
14016;DHT22;7083;48.854;9.158;2023-02-11T05:18:47;-1.60;99.90
14016;DHT22;7083;48.854;9.158;2023-02-11T05:21:16;-1.50;99.90
14016;DHT22;7083;48.854;9.158;2023-02-11T05:23:44;-1.50;99.90
14016;DHT22;7083;48.854;9.158;2023-02-11T05:26:11;-1.50;99.90
14016;DHT22;7083;48.854;9.158;2023-02-11T05:28:38;-1.40;99.90
14016;DHT22;7083;48.854;9.158;2023-02-11T05:31:05;-1.40;99.90
14016;DHT22;7083;48.854;9.158;2023-02-11T05:33:33;-1.40;99.90
14016;DHT22;7083;48.854;9.158;2023-02-11T05:36:02;-1.40;99.90
14016;DHT22;7083;48.854;9.158;2023-02-11T05:38:29;-1.40;99.90
14016;DHT22;7083;48.854;9.158;2023-02-11T05:40:56;-1.30;99.90
14016;DHT22;7083;48.854;9.158;2023-02-11T05:43:23;-1.40;99.90
14016;DHT22;7083;48.854;9.158;2023-02-11T05:45:49;-1.40;99.90
14016;DHT22;7083;48.854;9.158;2023-02-11T05:48:16;-1.40;99.90
14016;DHT22;7083;48.854;9.158;2023-02-11T05:50:44;-1.30;99.90
14016;DHT22;7083;48.854;9.158;2023-02-11T05:53:11;-1.30;99.90
14016;DHT22;7083;48.854;9.158;2023-02-11T05:55:38;-1.20;99.90
14016;DHT22;7083;48.854;9.158;2023-02-11T05:58:04;-1.20;99.90
14016;DHT22;7083;48.854;9.158;2023-02-11T06:00:32;-1.10;99.90
14016;DHT22;7083;48.854;9.158;2023-02-11T06:02:59;-1.10;99.90
14016;DHT22;7083;48.854;9.158;2023-02-11T06:05:28;-1.10;99.90
14016;DHT22;7083;48.854;9.158;2023-02-11T06:07:56;-1.10;99.90
14016;DHT22;7083;48.854;9.158;2023-02-11T06:10:23;-1.00;99.90
14016;DHT22;7083;48.854;9.158;2023-02-11T06:12:50;-1.00;99.90
14016;DHT22;7083;48.854;9.158;2023-02-11T06:15:17;-0.90;99.90
14016;DHT22;7083;48.854;9.158;2023-02-11T06:17:43;-0.90;99.90
14016;DHT22;7083;48.854;9.158;2023-02-11T06:20:10;-0.90;99.90
14016;DHT22;7083;48.854;9.158;2023-02-11T06:22:37;-0.90;99.90
14016;DHT22;7083;48.854;9.158;2023-02-11T06:25:06;-1.00;99.90
14016;DHT22;7083;48.854;9.158;2023-02-11T06:27:32;-0.90;99.90
14016;DHT22;7083;48.854;9.158;2023-02-11T06:29:59;-0.80;99.90
14016;DHT22;7083;48.854;9.158;2023-02-11T06:32:26;-0.80;99.90
14016;DHT22;7083;48.854;9.158;2023-02-11T06:34:53;-0.80;99.90
14016;DHT22;7083;48.854;9.158;2023-02-11T06:37:19;-0.80;99.90
14016;DHT22;7083;48.854;9.158;2023-02-11T06:39:46;-0.80;99.90
14016;DHT22;7083;48.854;9.158;2023-02-11T06:42:15;0.50;99.90
14016;DHT22;7083;48.854;9.158;2023-02-11T06:44:41;-0.90;99.90
14016;DHT22;7083;48.854;9.158;2023-02-11T06:47:09;-0.80;99.90
14016;DHT22;7083;48.854;9.158;2023-02-11T06:49:36;-0.80;99.90
14016;DHT22;7083;48.854;9.158;2023-02-11T06:52:03;-0.80;99.90
14016;DHT22;7083;48.854;9.158;2023-02-11T06:54:29;-0.70;99.90
14016;DHT22;7083;48.854;9.158;2023-02-11T06:56:56;-0.70;99.90
14016;DHT22;7083;48.854;9.158;2023-02-11T06:59:24;-0.60;99.90
14016;DHT22;7083;48.854;9.158;2023-02-11T07:01:51;-0.60;99.90
14016;DHT22;7083;48.854;9.158;2023-02-11T07:04:17;-0.60;99.90
14016;DHT22;7083;48.854;9.158;2023-02-11T07:06:44;-0.50;99.90
14016;DHT22;7083;48.854;9.158;2023-02-11T07:09:10;-0.50;99.90
14016;DHT22;7083;48.854;9.158;2023-02-11T07:11:37;-0.50;99.90
14016;DHT22;7083;48.854;9.158;2023-02-11T07:14:06;-0.50;99.90
14016;DHT22;7083;48.854;9.158;2023-02-11T07:16:35;-0.40;99.90
14016;DHT22;7083;48.854;9.158;2023-02-11T07:19:02;-0.40;99.90
14016;DHT22;7083;48.854;9.158;2023-02-11T07:21:29;-0.40;99.90
14016;DHT22;7083;48.854;9.158;2023-02-11T07:23:55;-0.50;99.90
14016;DHT22;7083;48.854;9.158;2023-02-11T07:26:23;-0.40;99.90
14016;DHT22;7083;48.854;9.158;2023-02-11T07:28:50;-0.40;99.90
14016;DHT22;7083;48.854;9.158;2023-02-11T07:31:19;-0.50;99.90
14016;DHT22;7083;48.854;9.158;2023-02-11T07:33:47;-0.50;99.90
14016;DHT22;7083;48.854;9.158;2023-02-11T07:36:15;-0.40;99.90
14016;DHT22;7083;48.854;9.158;2023-02-11T07:38:42;-0.30;99.90
14016;DHT22;7083;48.854;9.158;2023-02-11T07:41:10;-0.30;99.90
14016;DHT22;7083;48.854;9.158;2023-02-11T07:43:38;-0.20;99.90
14016;DHT22;7083;48.854;9.158;2023-02-11T07:46:06;-0.10;99.90
14016;DHT22;7083;48.854;9.158;2023-02-11T07:48:35;0.00;99.90
14016;DHT22;7083;48.854;9.158;2023-02-11T07:51:08;0.10;99.90
14016;DHT22;7083;48.854;9.158;2023-02-11T07:53:35;0.20;99.90
14016;DHT22;7083;48.854;9.158;2023-02-11T07:56:03;0.30;99.90
14016;DHT22;7083;48.854;9.158;2023-02-11T07:58:30;0.30;99.90
14016;DHT22;7083;48.854;9.158;2023-02-11T08:01:00;0.40;99.90
14016;DHT22;7083;48.854;9.158;2023-02-11T08:03:27;0.50;99.90
14016;DHT22;7083;48.854;9.158;2023-02-11T08:05:54;0.60;99.90
14016;DHT22;7083;48.854;9.158;2023-02-11T08:08:24;0.60;99.90
14016;DHT22;7083;48.854;9.158;2023-02-11T08:10:51;0.70;99.90
14016;DHT22;7083;48.854;9.158;2023-02-11T08:13:17;1.80;99.90
14016;DHT22;7083;48.854;9.158;2023-02-11T08:15:44;0.90;99.90
14016;DHT22;7083;48.854;9.158;2023-02-11T08:18:11;0.90;99.90
14016;DHT22;7083;48.854;9.158;2023-02-11T08:20:37;1.00;99.90
14016;DHT22;7083;48.854;9.158;2023-02-11T08:23:05;1.10;99.90
14016;DHT22;7083;48.854;9.158;2023-02-11T08:25:33;1.20;99.90
14016;DHT22;7083;48.854;9.158;2023-02-11T08:27:59;1.20;99.90
14016;DHT22;7083;48.854;9.158;2023-02-11T08:30:26;1.10;99.90
14016;DHT22;7083;48.854;9.158;2023-02-11T08:32:53;1.00;99.90
14016;DHT22;7083;48.854;9.158;2023-02-11T08:35:19;1.00;99.90
14016;DHT22;7083;48.854;9.158;2023-02-11T08:37:46;0.90;99.90
14016;DHT22;7083;48.854;9.158;2023-02-11T08:40:13;0.90;99.90
14016;DHT22;7083;48.854;9.158;2023-02-11T08:42:41;0.90;99.90
14016;DHT22;7083;48.854;9.158;2023-02-11T08:45:08;0.90;99.90
14016;DHT22;7083;48.854;9.158;2023-02-11T08:47:35;1.00;99.90
14016;DHT22;7083;48.854;9.158;2023-02-11T08:50:02;1.00;99.90
14016;DHT22;7083;48.854;9.158;2023-02-11T08:52:29;1.10;99.90
14016;DHT22;7083;48.854;9.158;2023-02-11T08:54:55;1.20;99.90
14016;DHT22;7083;48.854;9.158;2023-02-11T08:57:23;1.30;99.90
14016;DHT22;7083;48.854;9.158;2023-02-11T08:59:51;1.40;99.90
14016;DHT22;7083;48.854;9.158;2023-02-11T09:02:17;1.50;99.90
14016;DHT22;7083;48.854;9.158;2023-02-11T09:04:44;1.60;99.90
14016;DHT22;7083;48.854;9.158;2023-02-11T09:07:11;1.80;99.90
14016;DHT22;7083;48.854;9.158;2023-02-11T09:09:38;1.90;99.90
14016;DHT22;7083;48.854;9.158;2023-02-11T09:12:05;2.00;99.90
14016;DHT22;7083;48.854;9.158;2023-02-11T09:14:31;2.10;99.90
14016;DHT22;7083;48.854;9.158;2023-02-11T09:16:59;2.30;99.90
14016;DHT22;7083;48.854;9.158;2023-02-11T09:19:26;2.40;99.90
14016;DHT22;7083;48.854;9.158;2023-02-11T09:21:53;2.50;99.90
14016;DHT22;7083;48.854;9.158;2023-02-11T09:24:19;2.50;99.90
14016;DHT22;7083;48.854;9.158;2023-02-11T09:26:46;2.50;99.90
14016;DHT22;7083;48.854;9.158;2023-02-11T09:29:13;2.60;99.90
14016;DHT22;7083;48.854;9.158;2023-02-11T09:31:40;2.60;99.90
14016;DHT22;7083;48.854;9.158;2023-02-11T09:34:09;2.60;99.90
14016;DHT22;7083;48.854;9.158;2023-02-11T09:36:38;2.70;99.90
14016;DHT22;7083;48.854;9.158;2023-02-11T09:39:07;2.70;99.90
14016;DHT22;7083;48.854;9.158;2023-02-11T09:41:58;2.70;99.90
14016;DHT22;7083;48.854;9.158;2023-02-11T09:44:31;2.80;99.90
14016;DHT22;7083;48.854;9.158;2023-02-11T09:47:00;2.90;99.90
14016;DHT22;7083;48.854;9.158;2023-02-11T09:49:34;3.00;99.90
14016;DHT22;7083;48.854;9.158;2023-02-11T09:52:05;3.10;99.90
14016;DHT22;7083;48.854;9.158;2023-02-11T09:54:36;3.20;99.90
14016;DHT22;7083;48.854;9.158;2023-02-11T09:57:06;3.20;99.90
14016;DHT22;7083;48.854;9.158;2023-02-11T09:59:34;3.20;99.90
14016;DHT22;7083;48.854;9.158;2023-02-11T10:02:04;3.20;99.90
14016;DHT22;7083;48.854;9.158;2023-02-11T10:04:47;3.20;99.90
14016;DHT22;7083;48.854;9.158;2023-02-11T10:07:21;3.20;99.90
14016;DHT22;7083;48.854;9.158;2023-02-11T10:10:03;3.30;99.90
14016;DHT22;7083;48.854;9.158;2023-02-11T10:12:56;3.30;99.90
14016;DHT22;7083;48.854;9.158;2023-02-11T10:15:35;3.40;99.90
14016;DHT22;7083;48.854;9.158;2023-02-11T10:18:30;3.50;99.90
14016;DHT22;7083;48.854;9.158;2023-02-11T10:21:09;3.80;99.90
14016;DHT22;7083;48.854;9.158;2023-02-11T10:23:41;4.10;99.90
14016;DHT22;7083;48.854;9.158;2023-02-11T10:26:12;4.40;99.90
14016;DHT22;7083;48.854;9.158;2023-02-11T10:28:42;4.60;99.90
14016;DHT22;7083;48.854;9.158;2023-02-11T10:31:13;4.80;99.90
14016;DHT22;7083;48.854;9.158;2023-02-11T10:33:43;4.90;99.90
14016;DHT22;7083;48.854;9.158;2023-02-11T10:36:13;5.20;99.90
14016;DHT22;7083;48.854;9.158;2023-02-11T10:38:41;5.30;99.90
14016;DHT22;7083;48.854;9.158;2023-02-11T10:41:09;5.50;99.90
14016;DHT22;7083;48.854;9.158;2023-02-11T10:43:40;5.50;99.20
14016;DHT22;7083;48.854;9.158;2023-02-11T10:46:14;5.50;98.40
14016;DHT22;7083;48.854;9.158;2023-02-11T10:48:44;5.60;97.90
14016;DHT22;7083;48.854;9.158;2023-02-11T10:51:20;5.60;97.90
14016;DHT22;7083;48.854;9.158;2023-02-11T10:53:49;5.60;97.90
14016;DHT22;7083;48.854;9.158;2023-02-11T10:56:22;5.60;98.10
14016;DHT22;7083;48.854;9.158;2023-02-11T10:58:57;5.60;98.20
14016;DHT22;7083;48.854;9.158;2023-02-11T11:01:38;5.70;98.10
14016;DHT22;7083;48.854;9.158;2023-02-11T11:04:06;5.60;98.10
14016;DHT22;7083;48.854;9.158;2023-02-11T11:06:51;5.60;98.00
14016;DHT22;7083;48.854;9.158;2023-02-11T11:09:26;5.70;97.80
14016;DHT22;7083;48.854;9.158;2023-02-11T11:11:53;5.70;97.90
14016;DHT22;7083;48.854;9.158;2023-02-11T11:14:20;5.70;98.00
14016;DHT22;7083;48.854;9.158;2023-02-11T11:16:51;5.80;98.30
14016;DHT22;7083;48.854;9.158;2023-02-11T11:19:21;5.90;98.30
14016;DHT22;7083;48.854;9.158;2023-02-11T11:21:50;6.00;98.40
14016;DHT22;7083;48.854;9.158;2023-02-11T11:24:21;6.10;98.20
14016;DHT22;7083;48.854;9.158;2023-02-11T11:26:49;6.20;98.10
14016;DHT22;7083;48.854;9.158;2023-02-11T11:29:19;6.30;98.00
14016;DHT22;7083;48.854;9.158;2023-02-11T11:31:51;6.40;98.10
14016;DHT22;7083;48.854;9.158;2023-02-11T11:34:25;6.40;97.70
14016;DHT22;7083;48.854;9.158;2023-02-11T11:36:54;6.50;97.40
14016;DHT22;7083;48.854;9.158;2023-02-11T11:39:24;6.70;96.80
14016;DHT22;7083;48.854;9.158;2023-02-11T11:41:54;6.80;96.20
14016;DHT22;7083;48.854;9.158;2023-02-11T11:44:24;6.90;96.30
14016;DHT22;7083;48.854;9.158;2023-02-11T11:47:13;7.10;96.00
14016;DHT22;7083;48.854;9.158;2023-02-11T11:49:46;7.30;95.80
14016;DHT22;7083;48.854;9.158;2023-02-11T11:52:22;7.50;95.30
14016;DHT22;7083;48.854;9.158;2023-02-11T11:54:54;7.80;95.10
14016;DHT22;7083;48.854;9.158;2023-02-11T11:57:26;8.00;94.60
14016;DHT22;7083;48.854;9.158;2023-02-11T11:59:54;8.30;93.50
14016;DHT22;7083;48.854;9.158;2023-02-11T12:02:39;8.30;92.80
14016;DHT22;7083;48.854;9.158;2023-02-11T12:05:13;8.40;92.80
14016;DHT22;7083;48.854;9.158;2023-02-11T12:07:53;8.70;92.70
14016;DHT22;7083;48.854;9.158;2023-02-11T12:10:47;8.50;92.60
14016;DHT22;7083;48.854;9.158;2023-02-11T12:13:30;8.70;92.00
14016;DHT22;7083;48.854;9.158;2023-02-11T12:16:08;8.90;91.50
14016;DHT22;7083;48.854;9.158;2023-02-11T12:18:52;9.00;91.60
14016;DHT22;7083;48.854;9.158;2023-02-11T12:21:34;9.10;91.50
14016;DHT22;7083;48.854;9.158;2023-02-11T12:24:17;9.30;90.80
14016;DHT22;7083;48.854;9.158;2023-02-11T12:26:52;9.40;90.70
14016;DHT22;7083;48.854;9.158;2023-02-11T12:29:27;9.60;90.20
14016;DHT22;7083;48.854;9.158;2023-02-11T12:32:04;9.60;90.20
14016;DHT22;7083;48.854;9.158;2023-02-11T12:37:42;9.90;88.20
14016;DHT22;7083;48.854;9.158;2023-02-11T12:40:16;10.00;86.90
14016;DHT22;7083;48.854;9.158;2023-02-11T12:43:03;10.00;88.00
14016;DHT22;7083;48.854;9.158;2023-02-11T12:46:00;10.00;89.00
14016;DHT22;7083;48.854;9.158;2023-02-11T12:51:33;9.90;90.40
14016;DHT22;7083;48.854;9.158;2023-02-11T12:54:14;10.00;88.90
14016;DHT22;7083;48.854;9.158;2023-02-11T12:56:47;9.90;90.50
14016;DHT22;7083;48.854;9.158;2023-02-11T12:59:31;9.80;90.40
14016;DHT22;7083;48.854;9.158;2023-02-11T13:02:00;9.70;90.70
14016;DHT22;7083;48.854;9.158;2023-02-11T13:04:35;9.60;90.80
14016;DHT22;7083;48.854;9.158;2023-02-11T13:07:08;9.50;90.90
14016;DHT22;7083;48.854;9.158;2023-02-11T13:09:41;9.40;91.10
14016;DHT22;7083;48.854;9.158;2023-02-11T13:12:11;9.40;91.00
14016;DHT22;7083;48.854;9.158;2023-02-11T13:14:58;9.30;91.20
14016;DHT22;7083;48.854;9.158;2023-02-11T13:17:32;9.30;90.80
14016;DHT22;7083;48.854;9.158;2023-02-11T13:20:02;9.20;91.10
14016;DHT22;7083;48.854;9.158;2023-02-11T13:22:33;9.20;91.40
14016;DHT22;7083;48.854;9.158;2023-02-11T13:25:06;9.10;91.50
14016;DHT22;7083;48.854;9.158;2023-02-11T13:27:47;9.20;91.70
14016;DHT22;7083;48.854;9.158;2023-02-11T13:30:28;9.20;91.20
14016;DHT22;7083;48.854;9.158;2023-02-11T13:33:15;9.20;90.90
14016;DHT22;7083;48.854;9.158;2023-02-11T13:35:46;9.30;91.10
14016;DHT22;7083;48.854;9.158;2023-02-11T13:38:18;9.30;91.20
14016;DHT22;7083;48.854;9.158;2023-02-11T13:40:58;9.30;91.10
14016;DHT22;7083;48.854;9.158;2023-02-11T13:43:29;9.20;91.40
14016;DHT22;7083;48.854;9.158;2023-02-11T13:45:58;9.30;91.00
14016;DHT22;7083;48.854;9.158;2023-02-11T13:48:28;9.30;91.20
14016;DHT22;7083;48.854;9.158;2023-02-11T13:50:57;9.40;90.90
14016;DHT22;7083;48.854;9.158;2023-02-11T13:53:26;9.40;91.10
14016;DHT22;7083;48.854;9.158;2023-02-11T13:56:05;9.40;90.80
14016;DHT22;7083;48.854;9.158;2023-02-11T13:58:36;9.50;90.80
14016;DHT22;7083;48.854;9.158;2023-02-11T14:01:04;9.40;90.60
14016;DHT22;7083;48.854;9.158;2023-02-11T14:03:34;9.50;90.50
14016;DHT22;7083;48.854;9.158;2023-02-11T14:06:23;9.40;90.70
14016;DHT22;7083;48.854;9.158;2023-02-11T14:09:38;9.40;90.40
14016;DHT22;7083;48.854;9.158;2023-02-11T14:12:32;9.50;90.70
14016;DHT22;7083;48.854;9.158;2023-02-11T14:15:19;9.70;90.20
14016;DHT22;7083;48.854;9.158;2023-02-11T14:17:46;10.10;88.60
14016;DHT22;7083;48.854;9.158;2023-02-11T14:20:41;10.60;87.30
14016;DHT22;7083;48.854;9.158;2023-02-11T14:23:24;10.90;85.70
14016;DHT22;7083;48.854;9.158;2023-02-11T14:26:11;11.40;84.50
14016;DHT22;7083;48.854;9.158;2023-02-11T14:28:43;12.00;83.00
14016;DHT22;7083;48.854;9.158;2023-02-11T14:31:16;12.50;81.30
14016;DHT22;7083;48.854;9.158;2023-02-11T14:33:58;12.60;78.90
14016;DHT22;7083;48.854;9.158;2023-02-11T14:36:44;12.60;80.10
14016;DHT22;7083;48.854;9.158;2023-02-11T14:39:20;12.90;78.10
14016;DHT22;7083;48.854;9.158;2023-02-11T14:41:49;12.70;77.50
14016;DHT22;7083;48.854;9.158;2023-02-11T14:44:18;12.40;77.20
14016;DHT22;7083;48.854;9.158;2023-02-11T14:46:49;11.90;78.80
14016;DHT22;7083;48.854;9.158;2023-02-11T14:49:23;11.50;80.30
14016;DHT22;7083;48.854;9.158;2023-02-11T14:51:53;11.20;80.50
14016;DHT22;7083;48.854;9.158;2023-02-11T14:54:22;10.90;82.10
14016;DHT22;7083;48.854;9.158;2023-02-11T14:57:05;10.80;82.80
14016;DHT22;7083;48.854;9.158;2023-02-11T14:59:32;10.60;82.90
14016;DHT22;7083;48.854;9.158;2023-02-11T15:02:00;10.50;82.60
14016;DHT22;7083;48.854;9.158;2023-02-11T15:04:28;10.30;84.20
14016;DHT22;7083;48.854;9.158;2023-02-11T15:06:57;10.20;84.90
14016;DHT22;7083;48.854;9.158;2023-02-11T15:09:31;9.90;86.10
14016;DHT22;7083;48.854;9.158;2023-02-11T15:11:58;10.10;85.40
14016;DHT22;7083;48.854;9.158;2023-02-11T15:14:27;10.10;86.20
14016;DHT22;7083;48.854;9.158;2023-02-11T15:16:56;10.10;86.10
14016;DHT22;7083;48.854;9.158;2023-02-11T15:19:28;10.10;85.50
14016;DHT22;7083;48.854;9.158;2023-02-11T15:21:56;10.00;85.60
14016;DHT22;7083;48.854;9.158;2023-02-11T15:24:26;9.80;87.50
14016;DHT22;7083;48.854;9.158;2023-02-11T15:27:00;9.70;87.90
14016;DHT22;7083;48.854;9.158;2023-02-11T15:29:32;9.60;88.60
14016;DHT22;7083;48.854;9.158;2023-02-11T15:32:10;9.60;89.30
14016;DHT22;7083;48.854;9.158;2023-02-11T15:34:39;9.50;89.30
14016;DHT22;7083;48.854;9.158;2023-02-11T15:37:06;9.40;89.40
14016;DHT22;7083;48.854;9.158;2023-02-11T15:39:36;9.20;89.80
14016;DHT22;7083;48.854;9.158;2023-02-11T15:42:16;9.10;90.10
14016;DHT22;7083;48.854;9.158;2023-02-11T15:44:43;8.90;90.50
14016;DHT22;7083;48.854;9.158;2023-02-11T15:47:11;8.80;90.70
14016;DHT22;7083;48.854;9.158;2023-02-11T15:49:43;8.60;91.00
14016;DHT22;7083;48.854;9.158;2023-02-11T15:52:11;8.40;91.20
14016;DHT22;7083;48.854;9.158;2023-02-11T15:54:38;8.30;91.70
14016;DHT22;7083;48.854;9.158;2023-02-11T15:57:07;8.20;91.90
14016;DHT22;7083;48.854;9.158;2023-02-11T15:59:38;8.00;92.20
14016;DHT22;7083;48.854;9.158;2023-02-11T16:02:07;7.90;92.50
14016;DHT22;7083;48.854;9.158;2023-02-11T16:04:35;7.80;92.60
14016;DHT22;7083;48.854;9.158;2023-02-11T16:07:03;7.70;92.80
14016;DHT22;7083;48.854;9.158;2023-02-11T16:09:32;7.60;93.00
14016;DHT22;7083;48.854;9.158;2023-02-11T16:12:01;7.50;93.20
14016;DHT22;7083;48.854;9.158;2023-02-11T16:14:31;7.40;93.30
14016;DHT22;7083;48.854;9.158;2023-02-11T16:17:01;7.30;93.40
14016;DHT22;7083;48.854;9.158;2023-02-11T16:19:29;7.20;93.60
14016;DHT22;7083;48.854;9.158;2023-02-11T16:21:59;7.10;93.70